Time;durP1;ratioP1;P1;durP2;ratioP2;P2;SDS_P1;SDS_P2;PMS_P1;PMS_P2;Temp;Humidity;BMP_temperature;BMP_pressure;BME280_temperature;BME280_humidity;BME280_pressure;Samples;Min_cycle;Max_cycle;Signal;HPM_P1;HPM_P2
2023/06/14 00:00:07;;;;;;;6.03;3.57;;;;;;;;;;5071312;28;20492;-80
2023/06/14 00:02:49;;;;;;;5.00;2.80;;;;;;;;;;5076735;28;20460;-80
2023/06/14 00:05:19;;;;;;;7.77;2.80;;;;;;;;;;5076871;28;20414;-81
2023/06/14 00:07:49;;;;;;;4.10;2.50;;;;;;;;;;5070125;28;20473;-80
2023/06/14 00:10:21;;;;;;;5.37;3.17;;;;;;;;;;5066525;28;20449;-79
2023/06/14 00:12:52;;;;;;;4.23;2.70;;;;;;;;;;5065869;28;20513;-81
2023/06/14 00:15:23;;;;;;;4.97;3.50;;;;;;;;;;5067284;28;20438;-81
2023/06/14 00:17:56;;;;;;;3.87;2.43;;;;;;;;;;5074849;28;20446;-77
2023/06/14 00:20:27;;;;;;;7.57;2.53;;;;;;;;;;5073124;28;20488;-80
2023/06/14 00:22:58;;;;;;;4.10;2.67;;;;;;;;;;5070453;28;20466;-80
2023/06/14 00:28:20;;;;;;;3.90;2.67;;;;;;;;;;5072372;28;20445;-79
2023/06/14 00:30:51;;;;;;;6.87;2.67;;;;;;;;;;5070465;28;20489;-79
2023/06/14 00:33:20;;;;;;;4.83;2.43;;;;;;;;;;5072079;28;20449;-81
2023/06/14 00:35:48;;;;;;;5.43;2.90;;;;;;;;;;5069460;28;20462;-81
2023/06/14 00:38:20;;;;;;;8.07;2.40;;;;;;;;;;5065549;28;20435;-79
2023/06/14 00:40:48;;;;;;;6.70;3.43;;;;;;;;;;5070232;28;20862;-82
2023/06/14 00:43:17;;;;;;;6.60;2.60;;;;;;;;;;5064529;28;20450;-79
2023/06/14 00:45:44;;;;;;;4.80;2.53;;;;;;;;;;5064598;28;20449;-79
2023/06/14 00:48:13;;;;;;;4.07;2.47;;;;;;;;;;5063946;28;20453;-80
2023/06/14 00:50:41;;;;;;;4.37;2.17;;;;;;;;;;5065289;28;20485;-81
2023/06/14 00:53:09;;;;;;;4.73;2.30;;;;;;;;;;5059645;28;20872;-83
2023/06/14 00:55:37;;;;;;;4.87;2.93;;;;;;;;;;5062358;28;20450;-80
2023/06/14 00:58:05;;;;;;;4.07;2.30;;;;;;;;;;5065264;28;20854;-81
2023/06/14 01:00:32;;;;;;;5.43;2.30;;;;;;;;;;5063290;28;20457;-82
2023/06/14 01:03:01;;;;;;;5.87;2.47;;;;;;;;;;5055912;28;20485;-80
2023/06/14 01:05:44;;;;;;;3.57;2.03;;;;;;;;;;5065386;28;20579;-81
2023/06/14 01:08:17;;;;;;;6.60;2.57;;;;;;;;;;5068756;28;20863;-81
2023/06/14 01:10:53;;;;;;;4.17;2.57;;;;;;;;;;5068772;28;20482;-78
2023/06/14 01:13:23;;;;;;;7.07;3.03;;;;;;;;;;5072628;28;20489;-81
2023/06/14 01:15:54;;;;;;;4.27;3.13;;;;;;;;;;5073504;28;20446;-80
2023/06/14 01:18:24;;;;;;;5.53;2.60;;;;;;;;;;5068760;28;20461;-81
2023/06/14 01:20:54;;;;;;;4.20;2.47;;;;;;;;;;5068660;28;20470;-81
2023/06/14 01:23:25;;;;;;;5.23;2.80;;;;;;;;;;5069143;28;20457;-80
2023/06/14 01:25:53;;;;;;;4.80;2.57;;;;;;;;;;5066850;28;20512;-80
2023/06/14 01:28:21;;;;;;;5.27;2.53;;;;;;;;;;5062628;28;20457;-81
2023/06/14 01:30:52;;;;;;;6.63;2.80;;;;;;;;;;5065126;28;20576;-79
2023/06/14 01:33:21;;;;;;;4.40;2.27;;;;;;;;;;5061960;28;20462;-80
2023/06/14 01:35:49;;;;;;;6.33;3.23;;;;;;;;;;5065836;28;20462;-81
2023/06/14 01:38:19;;;;;;;4.47;2.27;;;;;;;;;;5070925;28;20450;-80
2023/06/14 01:40:57;;;;;;;4.23;2.60;;;;;;;;;;5067010;28;20455;-81
2023/06/14 01:43:25;;;;;;;6.07;2.90;;;;;;;;;;5062408;28;20458;-81
2023/06/14 01:45:53;;;;;;;4.80;3.10;;;;;;;;;;5066864;28;20754;-83
2023/06/14 01:48:21;;;;;;;4.57;2.87;;;;;;;;;;5061309;28;20460;-82
2023/06/14 01:50:49;;;;;;;6.60;3.03;;;;;;;;;;5053206;28;20614;-81
2023/06/14 01:53:17;;;;;;;3.80;2.70;;;;;;;;;;5061127;28;20785;-82
2023/06/14 01:55:48;;;;;;;4.00;2.53;;;;;;;;;;5058908;28;20508;-82
2023/06/14 01:58:17;;;;;;;5.73;3.30;;;;;;;;;;5055706;28;20484;-82
2023/06/14 02:00:45;;;;;;;5.63;3.23;;;;;;;;;;5060831;28;20891;-82
2023/06/14 02:03:13;;;;;;;9.43;2.80;;;;;;;;;;5061330;28;20493;-82
2023/06/14 02:05:40;;;;;;;7.27;3.00;;;;;;;;;;5050746;28;20455;-82
2023/06/14 02:08:08;;;;;;;3.83;2.33;;;;;;;;;;5040062;28;21172;-82
2023/06/14 02:10:35;;;;;;;5.00;3.50;;;;;;;;;;5040293;28;20871;-80
2023/06/14 02:13:03;;;;;;;5.50;2.50;;;;;;;;;;5042748;28;20754;-82
2023/06/14 02:15:33;;;;;;;6.80;2.67;;;;;;;;;;5043882;28;20514;-80
2023/06/14 02:18:02;;;;;;;5.60;2.80;;;;;;;;;;5043491;28;20743;-81
2023/06/14 02:20:30;;;;;;;4.23;2.90;;;;;;;;;;5042727;28;20497;-82
2023/06/14 02:22:57;;;;;;;3.43;2.60;;;;;;;;;;5042408;28;20459;-82
2023/06/14 02:25:24;;;;;;;7.33;2.70;;;;;;;;;;5043864;28;20451;-81
2023/06/14 02:27:52;;;;;;;9.17;2.40;;;;;;;;;;5048004;28;20477;-82
2023/06/14 02:30:20;;;;;;;4.40;2.47;;;;;;;;;;5048000;28;20466;-82
2023/06/14 02:32:50;;;;;;;4.47;2.73;;;;;;;;;;5047671;28;20484;-82
2023/06/14 02:35:20;;;;;;;7.60;2.60;;;;;;;;;;5045296;28;20454;-82
2023/06/14 02:37:47;;;;;;;6.03;3.17;;;;;;;;;;5041670;28;20450;-82
2023/06/14 02:40:16;;;;;;;7.00;2.43;;;;;;;;;;5042974;28;20465;-82
2023/06/14 02:42:43;;;;;;;4.47;2.63;;;;;;;;;;5050490;28;20442;-81
2023/06/14 02:45:10;;;;;;;4.17;2.50;;;;;;;;;;5045817;28;20465;-81
2023/06/14 02:47:50;;;;;;;4.30;2.53;;;;;;;;;;5043690;28;20908;-80
2023/06/14 02:50:18;;;;;;;5.33;2.70;;;;;;;;;;5046513;28;20442;-81
2023/06/14 02:52:47;;;;;;;5.30;2.90;;;;;;;;;;5046327;28;20490;-81
2023/06/14 02:55:14;;;;;;;6.30;2.93;;;;;;;;;;5051116;28;20430;-82
2023/06/14 02:57:42;;;;;;;6.10;3.53;;;;;;;;;;5047934;28;20474;-80
2023/06/14 03:00:12;;;;;;;4.77;1.97;;;;;;;;;;5048095;28;20485;-81
2023/06/14 03:02:43;;;;;;;5.07;2.73;;;;;;;;;;5052715;28;20463;-80
2023/06/14 03:05:10;;;;;;;4.83;2.93;;;;;;;;;;5057560;28;20523;-82
2023/06/14 03:07:40;;;;;;;8.10;3.30;;;;;;;;;;5071717;28;20482;-81
2023/06/14 03:10:10;;;;;;;5.77;2.80;;;;;;;;;;5065939;28;20450;-80
2023/06/14 03:12:37;;;;;;;12.17;4.93;;;;;;;;;;5064396;28;20565;-82
2023/06/14 03:15:12;;;;;;;5.47;2.50;;;;;;;;;;5065863;28;20446;-81
2023/06/14 03:17:45;;;;;;;5.67;2.83;;;;;;;;;;5065718;28;20466;-81
2023/06/14 03:20:17;;;;;;;6.17;3.10;;;;;;;;;;5068884;28;20450;-80
2023/06/14 03:22:54;;;;;;;6.10;3.30;;;;;;;;;;5070423;28;20442;-79
2023/06/14 03:25:23;;;;;;;5.17;2.90;;;;;;;;;;5034650;28;20438;-82
2023/06/14 03:27:54;;;;;;;5.47;2.80;;;;;;;;;;5053366;28;20821;-81
2023/06/14 03:30:23;;;;;;;4.30;2.83;;;;;;;;;;5055529;28;20480;-81
2023/06/14 03:32:51;;;;;;;7.10;3.80;;;;;;;;;;5056604;28;20483;-80
2023/06/14 03:35:20;;;;;;;6.00;3.30;;;;;;;;;;5062524;28;20866;-80
2023/06/14 03:37:48;;;;;;;5.70;2.67;;;;;;;;;;5060613;28;20477;-82
2023/06/14 03:40:17;;;;;;;8.67;3.00;;;;;;;;;;5059678;28;20521;-82
2023/06/14 03:42:48;;;;;;;5.40;2.93;;;;;;;;;;5053793;28;20492;-81
2023/06/14 03:45:15;;;;;;;6.20;3.23;;;;;;;;;;5055825;28;20437;-82
2023/06/14 03:47:43;;;;;;;7.60;3.53;;;;;;;;;;5057064;28;20581;-82
2023/06/14 03:50:11;;;;;;;5.93;3.37;;;;;;;;;;5056355;28;20467;-82
2023/06/14 03:52:38;;;;;;;4.80;3.20;;;;;;;;;;5060127;28;20473;-82
2023/06/14 03:55:10;;;;;;;9.97;3.30;;;;;;;;;;5054459;28;20921;-82
2023/06/14 03:57:37;;;;;;;5.50;3.30;;;;;;;;;;5050629;28;20881;-82
2023/06/14 04:00:07;;;;;;;9.23;3.50;;;;;;;;;;5053965;28;20870;-82
2023/06/14 04:02:36;;;;;;;9.43;3.00;;;;;;;;;;5049723;28;20482;-83
2023/06/14 04:05:08;;;;;;;4.90;2.87;;;;;;;;;;5060399;28;20466;-81
2023/06/14 04:07:39;;;;;;;5.43;3.67;;;;;;;;;;5058025;28;20460;-81
2023/06/14 04:10:08;;;;;;;8.53;3.00;;;;;;;;;;5063740;28;20462;-81
2023/06/14 04:12:38;;;;;;;7.72;4.15;;;;;;;;;;5032434;28;1424400;-81
2023/06/14 04:15:08;;;;;;;10.03;4.17;;;;;;;;;;5066933;28;20203;-79
2023/06/14 04:17:35;;;;;;;8.17;3.67;;;;;;;;;;5072806;28;20465;-81
2023/06/14 04:20:09;;;;;;;6.53;3.37;;;;;;;;;;5070263;28;20477;-82
2023/06/14 04:22:37;;;;;;;4.87;3.20;;;;;;;;;;5069731;28;20480;-81
2023/06/14 04:25:06;;;;;;;6.40;3.57;;;;;;;;;;5069625;28;20450;-80
2023/06/14 04:27:36;;;;;;;7.37;3.07;;;;;;;;;;5060803;28;20535;-80
2023/06/14 04:30:18;;;;;;;8.97;4.30;;;;;;;;;;5062183;28;20570;-81
2023/06/14 04:32:45;;;;;;;7.90;3.90;;;;;;;;;;5060240;28;20477;-81
2023/06/14 04:35:13;;;;;;;4.87;3.47;;;;;;;;;;5060598;28;20454;-82
2023/06/14 04:37:45;;;;;;;5.50;3.50;;;;;;;;;;5062902;28;20926;-82
2023/06/14 04:40:14;;;;;;;7.47;3.47;;;;;;;;;;5061298;28;20484;-80
2023/06/14 04:42:44;;;;;;;28.50;7.87;;;;;;;;;;5069434;28;20513;-82
2023/06/14 04:45:15;;;;;;;5.63;3.83;;;;;;;;;;5066695;28;20454;-81
2023/06/14 04:47:43;;;;;;;6.70;4.73;;;;;;;;;;5069031;28;20518;-79
2023/06/14 04:50:12;;;;;;;7.40;4.20;;;;;;;;;;5068162;28;20433;-80
2023/06/14 04:52:40;;;;;;;10.17;4.67;;;;;;;;;;5069023;28;20493;-78
2023/06/14 04:55:08;;;;;;;8.70;4.07;;;;;;;;;;5069042;28;20464;-80
2023/06/14 04:57:38;;;;;;;4.70;3.40;;;;;;;;;;5062165;28;20465;-81
2023/06/14 05:00:11;;;;;;;10.80;3.90;;;;;;;;;;5060590;28;20852;-81
2023/06/14 05:02:40;;;;;;;7.60;3.50;;;;;;;;;;5064064;28;20442;-81
2023/06/14 05:05:08;;;;;;;7.20;4.03;;;;;;;;;;5059838;28;20784;-81
2023/06/14 05:07:36;;;;;;;8.70;3.97;;;;;;;;;;5067118;28;20483;-82
2023/06/14 05:10:07;;;;;;;10.57;4.60;;;;;;;;;;5067718;28;20519;-81
2023/06/14 05:12:35;;;;;;;7.10;4.13;;;;;;;;;;5066123;28;20489;-79
2023/06/14 05:15:05;;;;;;;12.00;4.23;;;;;;;;;;5058861;28;20871;-80
2023/06/14 05:17:33;;;;;;;6.37;3.90;;;;;;;;;;5067284;28;20453;-80
2023/06/14 05:20:05;;;;;;;7.77;4.10;;;;;;;;;;5067501;28;20426;-80
2023/06/14 05:22:32;;;;;;;11.67;5.37;;;;;;;;;;5066869;28;20507;-79
2023/06/14 05:25:00;;;;;;;5.53;3.60;;;;;;;;;;5066505;28;20489;-81
2023/06/14 05:27:27;;;;;;;6.10;3.50;;;;;;;;;;5065432;28;20449;-81
2023/06/14 05:29:55;;;;;;;6.87;3.80;;;;;;;;;;5056094;28;20477;-78
2023/06/14 05:32:23;;;;;;;6.03;3.00;;;;;;;;;;5055775;28;20489;-80
2023/06/14 05:34:51;;;;;;;6.27;3.60;;;;;;;;;;5054393;28;20453;-80
2023/06/14 05:37:19;;;;;;;6.10;2.70;;;;;;;;;;5055488;28;20458;-81
2023/06/14 05:39:47;;;;;;;6.30;3.40;;;;;;;;;;5052949;28;20462;-78
2023/06/14 05:42:14;;;;;;;4.17;2.93;;;;;;;;;;5062242;28;20728;-79
2023/06/14 05:44:42;;;;;;;5.67;3.63;;;;;;;;;;5060586;28;20706;-82
2023/06/14 05:47:10;;;;;;;7.40;3.67;;;;;;;;;;5061451;28;20466;-82
2023/06/14 05:49:38;;;;;;;6.17;3.47;;;;;;;;;;5061305;28;20453;-81
2023/06/14 05:52:06;;;;;;;8.50;3.40;;;;;;;;;;5057225;28;20588;-80
2023/06/14 05:54:35;;;;;;;5.80;3.53;;;;;;;;;;5058515;28;20550;-81
2023/06/14 05:57:04;;;;;;;5.67;3.70;;;;;;;;;;5054684;28;20874;-81
2023/06/14 05:59:34;;;;;;;5.97;3.23;;;;;;;;;;5046376;28;20469;-80
2023/06/14 06:02:01;;;;;;;10.93;4.10;;;;;;;;;;5049056;28;20906;-79
2023/06/14 06:04:29;;;;;;;7.20;3.50;;;;;;;;;;5056371;28;20870;-80
2023/06/14 06:06:56;;;;;;;7.73;3.00;;;;;;;;;;5047646;28;20459;-80
2023/06/14 06:09:24;;;;;;;11.40;3.43;;;;;;;;;;5042804;28;20477;-81
2023/06/14 06:11:52;;;;;;;8.03;3.53;;;;;;;;;;5044263;28;20497;-80
2023/06/14 06:14:20;;;;;;;6.80;3.33;;;;;;;;;;5047172;28;20481;-79
2023/06/14 06:16:48;;;;;;;4.63;3.30;;;;;;;;;;5066994;28;20442;-80
2023/06/14 06:19:15;;;;;;;4.73;2.73;;;;;;;;;;5068083;28;20458;-80
2023/06/14 06:21:43;;;;;;;8.73;3.13;;;;;;;;;;5067478;28;20500;-82
2023/06/14 06:24:10;;;;;;;4.70;3.50;;;;;;;;;;5068284;28;20453;-80
2023/06/14 06:26:39;;;;;;;6.47;3.10;;;;;;;;;;5059047;28;20549;-80
2023/06/14 06:29:10;;;;;;;5.07;3.67;;;;;;;;;;5060673;28;20877;-79
2023/06/14 06:31:37;;;;;;;4.47;2.60;;;;;;;;;;5065019;28;20500;-82
2023/06/14 06:34:05;;;;;;;8.90;2.50;;;;;;;;;;5060872;28;20953;-80
2023/06/14 06:36:33;;;;;;;4.53;3.03;;;;;;;;;;5069932;28;20539;-80
2023/06/14 06:39:01;;;;;;;5.80;2.93;;;;;;;;;;5072261;28;20418;-80
2023/06/14 06:41:29;;;;;;;6.30;3.47;;;;;;;;;;5071380;28;20835;-80
2023/06/14 06:43:57;;;;;;;7.00;2.87;;;;;;;;;;5058402;28;20731;-80
2023/06/14 06:46:26;;;;;;;6.40;3.13;;;;;;;;;;5060996;28;20902;-79
2023/06/14 06:48:54;;;;;;;4.53;2.87;;;;;;;;;;5062508;28;20485;-79
2023/06/14 06:51:22;;;;;;;4.63;2.97;;;;;;;;;;5070131;28;20449;-80
2023/06/14 06:53:54;;;;;;;5.10;3.00;;;;;;;;;;5063174;28;20557;-79
2023/06/14 06:56:25;;;;;;;6.33;3.70;;;;;;;;;;5067148;28;20441;-83
2023/06/14 07:08:08;;;;;;;4.43;3.13;;;;;;;;;;5052372;28;20503;-73
2023/06/14 07:10:59;;;;;;;6.33;2.87;;;;;;;;;;5075304;28;20548;-73
2023/06/14 07:17:11;;;;;;;;;;;;;;;;;;;;;
2023/06/14 07:29:35;;;;;;;6.07;3.13;;;;;;;;;;5046481;28;20482;-75
2023/06/14 07:32:36;;;;;;;4.60;2.57;;;;;;;;;;5035371;28;20533;-75
2023/06/14 07:35:20;;;;;;;6.93;2.47;;;;;;;;;;5039564;28;20529;-75
2023/06/14 07:41:33;;;;;;;6.90;2.77;;;;;;;;;;4988520;28;20458;-74
2023/06/14 08:14:29;;;;;;;3.83;2.50;;;;;;;;;;5020992;28;20575;-74
2023/06/14 08:23:01;;;;;;;4.37;2.50;;;;;;;;;;4989072;28;20457;-73
2023/06/14 08:41:29;;;;;;;4.10;2.50;;;;;;;;;;4987422;28;20542;-76
2023/06/14 08:44:30;;;;;;;5.93;3.03;;;;;;;;;;5016407;28;20555;-75
2023/06/14 08:50:44;;;;;;;;;;;;;;;;;;;;;
2023/06/14 08:59:36;;;;;;;;;;;;;;;;;;;;;
2023/06/14 09:02:42;;;;;;;4.93;2.90;;;;;;;;;;5028589;28;20490;-74
2023/06/14 09:15:11;;;;;;;6.97;5.37;;;;;;;;;;4954971;29;21088;-76
2023/06/14 09:21:03;;;;;;;4.20;2.70;;;;;;;;;;5022804;28;20771;-74
2023/06/14 09:23:39;;;;;;;5.07;2.73;;;;;;;;;;5052258;28;20804;-74
2023/06/14 09:26:23;;;;;;;4.87;3.33;;;;;;;;;;5056171;28;20461;-75
2023/06/14 09:32:45;;;;;;;;;;;;;;;;;;;;;
2023/06/14 10:13:58;;;;;;;;;;;;;;;;;;;;;
2023/06/14 10:17:01;;;;;;;5.47;2.50;;;;;;;;;;4994635;28;20455;-73
2023/06/14 10:45:45;;;;;;;4.83;2.80;;;;;;;;;;5026610;28;20486;-73
2023/06/14 11:45:27;;;;;;;4.60;2.40;;;;;;;;;;1450365;26;20481;-79
2023/06/14 11:48:06;;;;;;;5.03;2.80;;;;;;;;;;5048280;28;20452;-81
2023/06/14 11:50:55;;;;;;;3.67;2.73;;;;;;;;;;5055783;28;20455;-81
2023/06/14 11:53:27;;;;;;;5.70;3.20;;;;;;;;;;5048706;28;20522;-81
2023/06/14 11:55:57;;;;;;;5.27;3.00;;;;;;;;;;5051614;28;20469;-82
2023/06/14 11:58:34;;;;;;;5.30;2.70;;;;;;;;;;5060104;28;20473;-79
2023/06/14 12:01:07;;;;;;;6.10;2.77;;;;;;;;;;5061998;28;20493;-80
2023/06/14 12:03:38;;;;;;;4.20;2.13;;;;;;;;;;5066358;28;20466;-82
2023/06/14 12:09:18;;;;;;;16.43;10.07;;;;;;;;;;5007535;28;20547;-80
2023/06/14 12:11:54;;;;;;;10.03;6.63;;;;;;;;;;5071186;28;20526;-83
2023/06/14 12:14:34;;;;;;;3.73;2.70;;;;;;;;;;5067332;28;20478;-81
2023/06/14 12:17:33;;;;;;;5.17;2.70;;;;;;;;;;5049290;28;20462;-81
2023/06/14 12:20:16;;;;;;;3.80;2.10;;;;;;;;;;5057666;28;20461;-82
2023/06/14 12:22:53;;;;;;;5.70;2.40;;;;;;;;;;5048791;28;20457;-80
2023/06/14 12:25:42;;;;;;;3.43;2.10;;;;;;;;;;5052272;28;20458;-79
2023/06/14 12:28:13;;;;;;;4.20;2.57;;;;;;;;;;5062628;28;20545;-79
2023/06/14 12:30:41;;;;;;;6.00;3.40;;;;;;;;;;5039069;28;20465;-79
2023/06/14 12:33:16;;;;;;;4.20;2.47;;;;;;;;;;5060648;28;20448;-78
2023/06/14 12:35:45;;;;;;;4.97;2.60;;;;;;;;;;5053185;28;20483;-80
2023/06/14 12:38:15;;;;;;;10.30;5.57;;;;;;;;;;5051370;28;20458;-80
2023/06/14 12:40:46;;;;;;;3.97;2.30;;;;;;;;;;5058137;28;20456;-79
2023/06/14 12:43:15;;;;;;;6.50;2.73;;;;;;;;;;5051373;28;20478;-79
2023/06/14 12:45:48;;;;;;;12.17;2.50;;;;;;;;;;5045846;28;20546;-80
2023/06/14 12:48:21;;;;;;;4.10;2.00;;;;;;;;;;5062655;28;20451;-81
2023/06/14 12:50:55;;;;;;;9.73;4.60;;;;;;;;;;5060017;28;20458;-80
2023/06/14 12:53:39;;;;;;;5.63;3.30;;;;;;;;;;5043691;28;20462;-81
2023/06/14 12:56:07;;;;;;;3.87;2.60;;;;;;;;;;5046776;28;20459;-77
2023/06/14 12:58:43;;;;;;;4.07;2.67;;;;;;;;;;5048099;28;20455;-80
2023/06/14 13:01:10;;;;;;;7.23;2.17;;;;;;;;;;5048282;28;20459;-80
2023/06/14 13:03:46;;;;;;;7.43;1.90;;;;;;;;;;5047807;28;20451;-80
2023/06/14 13:06:14;;;;;;;4.27;2.00;;;;;;;;;;5045583;28;20485;-82
2023/06/14 13:08:43;;;;;;;4.43;2.80;;;;;;;;;;5020261;28;20459;-79
2023/06/14 13:11:11;;;;;;;5.80;2.60;;;;;;;;;;5044651;28;20449;-79
2023/06/14 13:13:43;;;;;;;7.33;2.63;;;;;;;;;;5045872;28;20486;-78
2023/06/14 13:16:13;;;;;;;5.13;2.77;;;;;;;;;;5046231;28;20513;-79
2023/06/14 13:18:41;;;;;;;3.47;2.37;;;;;;;;;;5048051;28;20451;-80
2023/06/14 13:21:12;;;;;;;5.17;2.47;;;;;;;;;;5042012;28;20826;-80
2023/06/14 13:23:40;;;;;;;5.60;2.97;;;;;;;;;;5046255;28;20466;-78
2023/06/14 13:26:10;;;;;;;4.43;2.33;;;;;;;;;;5049074;28;20703;-79
2023/06/14 13:28:41;;;;;;;3.83;1.80;;;;;;;;;;5041598;28;20490;-78
2023/06/14 13:31:09;;;;;;;9.00;2.23;;;;;;;;;;5046792;28;20467;-79
2023/06/14 13:33:41;;;;;;;4.43;2.40;;;;;;;;;;5046023;28;20470;-79
2023/06/14 13:36:24;;;;;;;6.57;2.60;;;;;;;;;;5030580;28;20443;-79
2023/06/14 13:38:54;;;;;;;8.07;2.40;;;;;;;;;;5058773;28;20461;-78
2023/06/14 13:41:22;;;;;;;4.63;2.77;;;;;;;;;;5044138;28;20486;-82
2023/06/14 13:43:52;;;;;;;5.80;2.43;;;;;;;;;;5042781;28;20455;-81
2023/06/14 13:46:20;;;;;;;4.40;2.50;;;;;;;;;;5044215;28;20510;-82
2023/06/14 13:48:48;;;;;;;13.67;9.83;;;;;;;;;;5061272;28;20509;-80
2023/06/14 13:51:18;;;;;;;3.47;2.13;;;;;;;;;;5060204;28;20454;-81
2023/06/14 13:53:47;;;;;;;5.20;2.60;;;;;;;;;;5061869;28;20461;-80
2023/06/14 13:56:15;;;;;;;4.93;2.40;;;;;;;;;;5054756;28;20479;-76
2023/06/14 13:58:44;;;;;;;4.20;2.90;;;;;;;;;;5061798;28;20497;-79
2023/06/14 14:20:37;;;;;;;10.10;2.97;;;;;;;;;;5057377;28;20469;-81
2023/06/14 14:23:05;;;;;;;4.40;2.40;;;;;;;;;;5063531;28;20493;-79
2023/06/14 14:25:35;;;;;;;8.13;2.33;;;;;;;;;;5063985;28;20529;-80
2023/06/14 14:28:07;;;;;;;5.43;2.70;;;;;;;;;;5061308;28;20458;-78
2023/06/14 14:30:39;;;;;;;4.70;2.57;;;;;;;;;;5069780;28;20450;-79
2023/06/14 14:33:07;;;;;;;7.20;2.30;;;;;;;;;;5069470;28;20539;-80
2023/06/14 14:35:38;;;;;;;4.40;2.60;;;;;;;;;;5058075;28;20490;-80
2023/06/14 14:38:06;;;;;;;6.63;2.37;;;;;;;;;;5061085;28;20460;-79
2023/06/14 14:40:39;;;;;;;6.87;4.57;;;;;;;;;;5063214;28;20568;-79
2023/06/14 14:43:08;;;;;;;4.83;2.90;;;;;;;;;;5056799;28;20493;-79
2023/06/14 14:57:56;;;;;;;4.10;2.13;;;;;;;;;;5045764;28;20535;-79
2023/06/14 19:43:01;;;;;;;7.03;2.17;;;;;;;;;;4875555;26;20561;-80
2023/06/14 19:45:29;;;;;;;4.17;1.60;;;;;;;;;;5062637;28;20492;-78
2023/06/14 19:47:56;;;;;;;3.10;1.70;;;;;;;;;;5049796;28;20463;-78
2023/06/14 19:50:24;;;;;;;4.50;2.20;;;;;;;;;;5044922;28;20451;-80
2023/06/14 19:52:52;;;;;;;4.40;1.90;;;;;;;;;;5044338;28;20724;-80
2023/06/14 19:55:20;;;;;;;3.17;1.80;;;;;;;;;;5046870;28;20478;-82
2023/06/14 19:57:48;;;;;;;4.70;2.63;;;;;;;;;;5059080;28;20461;-77
2023/06/14 20:00:19;;;;;;;3.97;2.10;;;;;;;;;;5068419;28;20565;-78
2023/06/14 20:02:48;;;;;;;7.50;2.20;;;;;;;;;;5062377;28;20473;-80
2023/06/14 20:05:16;;;;;;;5.90;1.97;;;;;;;;;;5061457;28;20465;-79
2023/06/14 20:07:43;;;;;;;3.23;1.97;;;;;;;;;;5064674;28;20527;-78
2023/06/14 20:10:11;;;;;;;7.13;2.10;;;;;;;;;;5061089;28;20477;-78
2023/06/14 20:12:40;;;;;;;4.10;2.20;;;;;;;;;;5061322;28;20445;-79
2023/06/14 20:15:08;;;;;;;5.33;2.10;;;;;;;;;;5062096;28;20500;-80
2023/06/14 20:17:37;;;;;;;4.00;1.70;;;;;;;;;;5060490;28;20663;-81
2023/06/14 20:20:08;;;;;;;10.20;2.17;;;;;;;;;;5061339;28;20674;-79
2023/06/14 20:22:40;;;;;;;9.37;3.47;;;;;;;;;;5068010;28;20450;-80
2023/06/14 20:25:11;;;;;;;5.60;2.00;;;;;;;;;;5065458;28;20465;-81
2023/06/14 20:27:38;;;;;;;4.90;2.67;;;;;;;;;;5061301;28;20457;-80
2023/06/14 20:30:12;;;;;;;4.20;2.07;;;;;;;;;;5060137;28;20683;-80
2023/06/14 20:32:41;;;;;;;3.93;2.20;;;;;;;;;;5060863;28;20469;-79
2023/06/14 20:35:09;;;;;;;6.73;2.50;;;;;;;;;;5058970;28;21211;-79
2023/06/14 20:37:37;;;;;;;5.03;2.20;;;;;;;;;;5063260;28;20450;-80
2023/06/14 20:40:18;;;;;;;4.07;2.10;;;;;;;;;;5063411;28;20458;-80
2023/06/14 20:42:47;;;;;;;5.90;3.30;;;;;;;;;;5061999;28;20516;-78
2023/06/14 20:45:16;;;;;;;4.73;2.10;;;;;;;;;;5048028;28;20451;-82
2023/06/14 20:47:45;;;;;;;5.73;2.00;;;;;;;;;;5046927;28;20458;-80
2023/06/14 20:50:13;;;;;;;4.63;2.10;;;;;;;;;;5042305;28;20461;-79
2023/06/14 20:52:41;;;;;;;3.43;2.13;;;;;;;;;;5043342;28;20463;-81
2023/06/14 20:55:09;;;;;;;5.17;2.27;;;;;;;;;;5057326;28;20793;-81
2023/06/14 20:57:36;;;;;;;11.07;2.80;;;;;;;;;;5062690;28;20513;-81
2023/06/14 21:00:10;;;;;;;6.33;2.50;;;;;;;;;;5064915;28;20453;-80
2023/06/14 21:02:38;;;;;;;3.60;1.93;;;;;;;;;;5063594;28;20472;-79
2023/06/14 21:05:08;;;;;;;5.17;3.20;;;;;;;;;;5061263;28;20458;-78
2023/06/14 21:07:36;;;;;;;7.03;3.20;;;;;;;;;;5062251;28;20446;-79
2023/06/14 21:10:07;;;;;;;4.20;2.20;;;;;;;;;;5063503;28;20454;-80
2023/06/14 21:12:35;;;;;;;3.50;1.90;;;;;;;;;;5063549;28;20714;-79
2023/06/14 21:15:02;;;;;;;3.67;2.17;;;;;;;;;;5061849;28;20482;-77
2023/06/14 21:17:30;;;;;;;3.77;2.07;;;;;;;;;;5065206;28;20481;-77
2023/06/14 21:19:57;;;;;;;4.73;2.53;;;;;;;;;;5062261;28;20461;-78
2023/06/14 21:22:26;;;;;;;5.10;2.90;;;;;;;;;;5061866;28;20469;-79
2023/06/14 21:24:53;;;;;;;5.10;2.20;;;;;;;;;;5064429;28;20438;-79
2023/06/14 21:27:21;;;;;;;6.17;2.87;;;;;;;;;;5065227;28;20442;-78
2023/06/14 21:29:49;;;;;;;4.00;2.07;;;;;;;;;;5066390;28;20481;-80
2023/06/14 21:32:17;;;;;;;5.57;2.17;;;;;;;;;;5063189;28;20912;-79
2023/06/14 21:34:44;;;;;;;8.13;2.50;;;;;;;;;;5063943;28;20434;-80
2023/06/14 21:37:12;;;;;;;11.20;2.53;;;;;;;;;;5059098;28;20868;-80
2023/06/14 21:39:41;;;;;;;5.17;2.47;;;;;;;;;;5062054;28;20442;-79
2023/06/14 21:42:09;;;;;;;12.87;3.80;;;;;;;;;;5059738;28;20482;-77
2023/06/14 21:44:40;;;;;;;3.20;2.03;;;;;;;;;;5063848;28;20445;-81
2023/06/14 21:47:12;;;;;;;3.90;1.90;;;;;;;;;;5062348;28;20449;-79
2023/06/14 21:49:40;;;;;;;4.70;2.50;;;;;;;;;;5061255;28;20449;-78
2023/06/14 21:52:08;;;;;;;3.77;2.17;;;;;;;;;;5065482;28;20462;-80
2023/06/14 21:54:35;;;;;;;5.07;2.40;;;;;;;;;;5064041;28;20520;-78
2023/06/14 21:57:12;;;;;;;3.97;2.10;;;;;;;;;;5067723;28;20535;-79
2023/06/14 21:59:39;;;;;;;9.30;4.10;;;;;;;;;;5067427;28;20453;-79
2023/06/14 22:02:07;;;;;;;5.33;2.50;;;;;;;;;;5066452;28;20639;-81
2023/06/14 22:04:34;;;;;;;3.40;2.10;;;;;;;;;;5067703;28;20445;-79
2023/06/14 22:07:02;;;;;;;4.13;1.90;;;;;;;;;;5068708;28;20889;-79
2023/06/14 22:09:33;;;;;;;6.00;2.20;;;;;;;;;;5069798;28;20489;-80
2023/06/14 22:12:01;;;;;;;4.07;2.23;;;;;;;;;;5069092;28;20461;-80
2023/06/14 22:14:33;;;;;;;3.90;1.63;;;;;;;;;;5068158;28;20556;-79
2023/06/14 22:17:02;;;;;;;3.90;1.90;;;;;;;;;;5070600;28;20501;-81
2023/06/14 22:19:30;;;;;;;7.60;2.60;;;;;;;;;;5069733;28;20445;-80
2023/06/14 22:22:00;;;;;;;3.73;2.20;;;;;;;;;;5069655;28;20462;-80
2023/06/14 22:24:31;;;;;;;4.63;2.30;;;;;;;;;;5068905;28;20446;-81
2023/06/14 22:26:59;;;;;;;4.17;2.03;;;;;;;;;;5068062;28;20458;-79
2023/06/14 22:29:29;;;;;;;4.10;2.40;;;;;;;;;;5072746;28;20437;-79
2023/06/14 22:32:06;;;;;;;5.17;2.33;;;;;;;;;;5072204;28;20458;-78
2023/06/14 22:34:38;;;;;;;6.07;2.30;;;;;;;;;;5072904;28;20469;-80
2023/06/14 22:37:14;;;;;;;4.30;2.00;;;;;;;;;;5070289;28;20485;-80
2023/06/14 22:39:43;;;;;;;6.70;2.00;;;;;;;;;;5068967;28;20783;-78
2023/06/14 22:42:13;;;;;;;4.17;2.37;;;;;;;;;;5067179;28;20486;-80
2023/06/14 22:44:40;;;;;;;4.00;2.23;;;;;;;;;;5068267;28;20517;-81
2023/06/14 22:47:12;;;;;;;4.53;2.40;;;;;;;;;;5068301;28;20456;-79
2023/06/14 22:49:40;;;;;;;6.33;2.30;;;;;;;;;;5067334;28;20458;-79
2023/06/14 22:52:09;;;;;;;10.27;2.30;;;;;;;;;;5065909;28;20454;-79
2023/06/14 22:54:36;;;;;;;3.60;2.27;;;;;;;;;;5067023;28;20465;-79
2023/06/14 22:57:07;;;;;;;4.17;2.00;;;;;;;;;;5066764;28;20563;-79
2023/06/14 22:59:37;;;;;;;4.10;2.30;;;;;;;;;;5065748;28;20509;-78
2023/06/14 23:02:04;;;;;;;4.13;2.50;;;;;;;;;;5065826;28;20430;-80
2023/06/14 23:04:34;;;;;;;9.03;3.07;;;;;;;;;;5067613;28;20469;-79
2023/06/14 23:07:03;;;;;;;2.90;2.03;;;;;;;;;;5066236;28;20464;-79
2023/06/14 23:09:31;;;;;;;3.33;1.80;;;;;;;;;;5073235;28;20453;-78
2023/06/14 23:12:00;;;;;;;6.30;2.47;;;;;;;;;;5067955;28;20465;-80
2023/06/14 23:17:24;;;;;;;3.40;2.03;;;;;;;;;;5070441;28;20478;-81
2023/06/14 23:19:53;;;;;;;4.00;2.57;;;;;;;;;;5070874;28;20519;-79
2023/06/14 23:22:21;;;;;;;5.70;2.30;;;;;;;;;;5068333;28;20463;-81
2023/06/14 23:24:51;;;;;;;3.00;2.10;;;;;;;;;;5066851;28;20458;-78
2023/06/14 23:27:23;;;;;;;4.70;2.20;;;;;;;;;;5067341;28;20474;-78
2023/06/14 23:29:53;;;;;;;4.00;2.33;;;;;;;;;;5068083;28;20491;-79
2023/06/14 23:32:24;;;;;;;3.37;2.13;;;;;;;;;;5068918;28;20502;-78
2023/06/14 23:34:52;;;;;;;4.27;2.43;;;;;;;;;;5067778;28;20543;-80
2023/06/14 23:37:21;;;;;;;4.17;2.57;;;;;;;;;;5069307;28;20500;-80
2023/06/14 23:39:50;;;;;;;7.27;2.30;;;;;;;;;;5066713;28;20453;-78
2023/06/14 23:42:18;;;;;;;5.60;2.87;;;;;;;;;;5064409;28;20584;-79
2023/06/14 23:44:47;;;;;;;4.07;2.60;;;;;;;;;;5065503;28;20482;-80
2023/06/14 23:47:14;;;;;;;5.67;2.17;;;;;;;;;;5067948;28;20446;-80
2023/06/14 23:49:41;;;;;;;4.23;2.57;;;;;;;;;;5053455;28;20494;-81
2023/06/14 23:52:09;;;;;;;4.80;2.33;;;;;;;;;;5045239;28;20458;-79
2023/06/14 23:54:39;;;;;;;3.60;2.47;;;;;;;;;;5048473;28;20466;-80
2023/06/14 23:57:14;;;;;;;3.33;2.40;;;;;;;;;;5045958;28;20470;-79
2023/06/14 23:59:42;;;;;;;8.43;2.87;;;;;;;;;;5047099;28;20709;-77
